sensor_id;sensor_type;location;lat;lon;timestamp;P1;durP1;ratioP1;P2;durP2;ratioP2
9526;SDS011;4802;51.494;6.770;2023-02-18T00:02:28;4.17;;;3.73;;
9526;SDS011;4802;51.494;6.770;2023-02-18T00:05:04;7.57;;;5.00;;
9526;SDS011;4802;51.494;6.770;2023-02-18T00:08:07;7.93;;;6.43;;
9526;SDS011;4802;51.494;6.770;2023-02-18T00:10:54;11.03;;;6.93;;
9526;SDS011;4802;51.494;6.770;2023-02-18T00:13:24;5.57;;;4.60;;
9526;SDS011;4802;51.494;6.770;2023-02-18T00:18:42;10.97;;;7.07;;
9526;SDS011;4802;51.494;6.770;2023-02-18T00:21:17;9.60;;;5.13;;
9526;SDS011;4802;51.494;6.770;2023-02-18T00:23:46;5.93;;;5.30;;
9526;SDS011;4802;51.494;6.770;2023-02-18T00:26:17;9.27;;;5.30;;
9526;SDS011;4802;51.494;6.770;2023-02-18T00:28:47;8.03;;;5.00;;
9526;SDS011;4802;51.494;6.770;2023-02-18T00:31:17;7.33;;;6.63;;
9526;SDS011;4802;51.494;6.770;2023-02-18T00:33:46;17.80;;;7.13;;
9526;SDS011;4802;51.494;6.770;2023-02-18T00:36:17;6.80;;;4.83;;
9526;SDS011;4802;51.494;6.770;2023-02-18T00:38:47;9.13;;;5.63;;
9526;SDS011;4802;51.494;6.770;2023-02-18T00:41:19;6.07;;;3.73;;
9526;SDS011;4802;51.494;6.770;2023-02-18T00:43:49;8.47;;;5.37;;
9526;SDS011;4802;51.494;6.770;2023-02-18T00:46:18;6.70;;;5.30;;
9526;SDS011;4802;51.494;6.770;2023-02-18T00:48:47;6.10;;;5.03;;
9526;SDS011;4802;51.494;6.770;2023-02-18T00:51:16;9.10;;;5.20;;
9526;SDS011;4802;51.494;6.770;2023-02-18T00:53:45;7.87;;;5.23;;
9526;SDS011;4802;51.494;6.770;2023-02-18T00:56:13;7.83;;;5.27;;
9526;SDS011;4802;51.494;6.770;2023-02-18T00:58:48;9.13;;;5.00;;
9526;SDS011;4802;51.494;6.770;2023-02-18T01:01:17;7.33;;;3.90;;
9526;SDS011;4802;51.494;6.770;2023-02-18T01:03:46;7.43;;;6.07;;
9526;SDS011;4802;51.494;6.770;2023-02-18T01:06:15;6.50;;;5.00;;
9526;SDS011;4802;51.494;6.770;2023-02-18T01:08:45;29.20;;;6.73;;
9526;SDS011;4802;51.494;6.770;2023-02-18T01:11:17;9.47;;;5.87;;
9526;SDS011;4802;51.494;6.770;2023-02-18T01:13:48;8.00;;;5.10;;
9526;SDS011;4802;51.494;6.770;2023-02-18T01:16:17;9.87;;;5.90;;
9526;SDS011;4802;51.494;6.770;2023-02-18T01:18:46;6.27;;;4.77;;
9526;SDS011;4802;51.494;6.770;2023-02-18T01:21:15;12.23;;;7.10;;
9526;SDS011;4802;51.494;6.770;2023-02-18T01:23:44;8.80;;;6.00;;
9526;SDS011;4802;51.494;6.770;2023-02-18T01:26:13;12.23;;;5.97;;
9526;SDS011;4802;51.494;6.770;2023-02-18T01:28:42;11.27;;;5.40;;
9526;SDS011;4802;51.494;6.770;2023-02-18T01:31:13;7.70;;;6.07;;
9526;SDS011;4802;51.494;6.770;2023-02-18T01:33:42;7.00;;;5.50;;
9526;SDS011;4802;51.494;6.770;2023-02-18T01:36:11;7.13;;;5.70;;
9526;SDS011;4802;51.494;6.770;2023-02-18T01:38:40;9.27;;;6.03;;
9526;SDS011;4802;51.494;6.770;2023-02-18T01:41:10;6.47;;;4.73;;
9526;SDS011;4802;51.494;6.770;2023-02-18T01:43:40;6.47;;;5.40;;
9526;SDS011;4802;51.494;6.770;2023-02-18T01:46:14;6.67;;;6.03;;
9526;SDS011;4802;51.494;6.770;2023-02-18T01:48:45;13.03;;;5.43;;
9526;SDS011;4802;51.494;6.770;2023-02-18T01:51:16;7.63;;;6.43;;
9526;SDS011;4802;51.494;6.770;2023-02-18T01:53:47;8.10;;;4.00;;
9526;SDS011;4802;51.494;6.770;2023-02-18T01:56:18;6.07;;;4.87;;
9526;SDS011;4802;51.494;6.770;2023-02-18T01:58:48;7.17;;;4.83;;
9526;SDS011;4802;51.494;6.770;2023-02-18T02:01:19;5.57;;;4.07;;
9526;SDS011;4802;51.494;6.770;2023-02-18T02:03:48;6.70;;;5.40;;
9526;SDS011;4802;51.494;6.770;2023-02-18T02:06:17;11.10;;;5.97;;
9526;SDS011;4802;51.494;6.770;2023-02-18T02:08:56;5.57;;;4.60;;
9526;SDS011;4802;51.494;6.770;2023-02-18T02:14:20;10.23;;;4.67;;
9526;SDS011;4802;51.494;6.770;2023-02-18T02:16:56;5.93;;;4.50;;
9526;SDS011;4802;51.494;6.770;2023-02-18T02:19:43;9.90;;;5.10;;
9526;SDS011;4802;51.494;6.770;2023-02-18T02:22:31;4.50;;;4.10;;
9526;SDS011;4802;51.494;6.770;2023-02-18T02:25:05;8.10;;;3.97;;
9526;SDS011;4802;51.494;6.770;2023-02-18T02:27:41;5.20;;;4.03;;
9526;SDS011;4802;51.494;6.770;2023-02-18T02:35:53;3.70;;;3.30;;
9526;SDS011;4802;51.494;6.770;2023-02-18T02:38:30;4.33;;;3.47;;
9526;SDS011;4802;51.494;6.770;2023-02-18T02:41:12;8.53;;;3.77;;
9526;SDS011;4802;51.494;6.770;2023-02-18T02:43:52;8.70;;;5.43;;
9526;SDS011;4802;51.494;6.770;2023-02-18T02:46:26;5.70;;;3.67;;
9526;SDS011;4802;51.494;6.770;2023-02-18T02:48:57;4.67;;;4.27;;
9526;SDS011;4802;51.494;6.770;2023-02-18T02:51:31;4.30;;;3.97;;
9526;SDS011;4802;51.494;6.770;2023-02-18T02:54:12;3.83;;;3.13;;
9526;SDS011;4802;51.494;6.770;2023-02-18T02:56:41;4.87;;;4.03;;
9526;SDS011;4802;51.494;6.770;2023-02-18T02:59:13;6.87;;;5.80;;
9526;SDS011;4802;51.494;6.770;2023-02-18T03:01:52;4.77;;;4.07;;
9526;SDS011;4802;51.494;6.770;2023-02-18T03:10:24;6.33;;;3.30;;
9526;SDS011;4802;51.494;6.770;2023-02-18T03:13:12;5.27;;;3.87;;
9526;SDS011;4802;51.494;6.770;2023-02-18T03:15:52;4.27;;;3.87;;
9526;SDS011;4802;51.494;6.770;2023-02-18T03:18:23;7.63;;;3.97;;
9526;SDS011;4802;51.494;6.770;2023-02-18T03:21:12;4.70;;;3.83;;
9526;SDS011;4802;51.494;6.770;2023-02-18T03:23:47;3.30;;;3.10;;
9526;SDS011;4802;51.494;6.770;2023-02-18T03:26:22;3.43;;;3.20;;
9526;SDS011;4802;51.494;6.770;2023-02-18T03:28:52;3.37;;;3.17;;
9526;SDS011;4802;51.494;6.770;2023-02-18T03:31:22;5.07;;;3.57;;
9526;SDS011;4802;51.494;6.770;2023-02-18T03:34:02;4.10;;;3.80;;
9526;SDS011;4802;51.494;6.770;2023-02-18T03:36:32;6.10;;;3.40;;
9526;SDS011;4802;51.494;6.770;2023-02-18T03:39:02;4.90;;;4.50;;
9526;SDS011;4802;51.494;6.770;2023-02-18T03:41:35;3.80;;;3.50;;
9526;SDS011;4802;51.494;6.770;2023-02-18T03:44:07;4.87;;;4.00;;
9526;SDS011;4802;51.494;6.770;2023-02-18T03:46:37;3.67;;;3.37;;
9526;SDS011;4802;51.494;6.770;2023-02-18T03:49:06;4.07;;;3.57;;
9526;SDS011;4802;51.494;6.770;2023-02-18T03:51:38;3.80;;;3.47;;
9526;SDS011;4802;51.494;6.770;2023-02-18T03:54:09;4.40;;;3.80;;
9526;SDS011;4802;51.494;6.770;2023-02-18T03:56:42;5.07;;;3.80;;
9526;SDS011;4802;51.494;6.770;2023-02-18T03:59:14;5.07;;;4.67;;
9526;SDS011;4802;51.494;6.770;2023-02-18T04:01:43;4.47;;;3.63;;
9526;SDS011;4802;51.494;6.770;2023-02-18T04:04:17;4.23;;;3.63;;
9526;SDS011;4802;51.494;6.770;2023-02-18T04:07:02;3.97;;;3.37;;
9526;SDS011;4802;51.494;6.770;2023-02-18T04:09:31;4.17;;;3.83;;
9526;SDS011;4802;51.494;6.770;2023-02-18T04:12:03;2.90;;;2.70;;
9526;SDS011;4802;51.494;6.770;2023-02-18T04:14:35;4.70;;;3.17;;
9526;SDS011;4802;51.494;6.770;2023-02-18T04:17:06;7.27;;;3.60;;
9526;SDS011;4802;51.494;6.770;2023-02-18T04:19:38;3.13;;;2.80;;
9526;SDS011;4802;51.494;6.770;2023-02-18T04:22:09;8.90;;;4.40;;
9526;SDS011;4802;51.494;6.770;2023-02-18T04:24:40;3.80;;;2.60;;
9526;SDS011;4802;51.494;6.770;2023-02-18T04:27:13;3.33;;;2.63;;
9526;SDS011;4802;51.494;6.770;2023-02-18T04:29:45;8.23;;;3.30;;
9526;SDS011;4802;51.494;6.770;2023-02-18T04:32:15;3.97;;;3.10;;
9526;SDS011;4802;51.494;6.770;2023-02-18T04:34:44;2.80;;;1.90;;
9526;SDS011;4802;51.494;6.770;2023-02-18T04:37:16;2.93;;;2.73;;
9526;SDS011;4802;51.494;6.770;2023-02-18T04:39:46;4.93;;;3.03;;
9526;SDS011;4802;51.494;6.770;2023-02-18T04:42:21;3.53;;;2.83;;
9526;SDS011;4802;51.494;6.770;2023-02-18T04:44:53;2.83;;;2.50;;
9526;SDS011;4802;51.494;6.770;2023-02-18T04:47:27;2.93;;;2.73;;
9526;SDS011;4802;51.494;6.770;2023-02-18T04:49:56;3.73;;;1.83;;
9526;SDS011;4802;51.494;6.770;2023-02-18T04:52:25;2.57;;;2.40;;
9526;SDS011;4802;51.494;6.770;2023-02-18T04:54:53;3.37;;;2.10;;
9526;SDS011;4802;51.494;6.770;2023-02-18T04:57:24;1.50;;;1.47;;
9526;SDS011;4802;51.494;6.770;2023-02-18T05:00:03;2.10;;;1.80;;
9526;SDS011;4802;51.494;6.770;2023-02-18T05:02:34;2.03;;;1.60;;
9526;SDS011;4802;51.494;6.770;2023-02-18T05:05:06;2.87;;;1.47;;
9526;SDS011;4802;51.494;6.770;2023-02-18T05:07:40;1.67;;;1.57;;
9526;SDS011;4802;51.494;6.770;2023-02-18T05:10:14;1.63;;;1.30;;
9526;SDS011;4802;51.494;6.770;2023-02-18T05:12:50;2.63;;;0.97;;
9526;SDS011;4802;51.494;6.770;2023-02-18T05:15:20;6.03;;;0.97;;
9526;SDS011;4802;51.494;6.770;2023-02-18T05:17:49;1.00;;;1.00;;
9526;SDS011;4802;51.494;6.770;2023-02-18T05:20:17;1.07;;;1.07;;
9526;SDS011;4802;51.494;6.770;2023-02-18T05:22:47;1.40;;;1.30;;
9526;SDS011;4802;51.494;6.770;2023-02-18T05:25:16;1.43;;;1.27;;
9526;SDS011;4802;51.494;6.770;2023-02-18T05:27:44;2.43;;;1.10;;
9526;SDS011;4802;51.494;6.770;2023-02-18T05:30:15;1.90;;;1.17;;
9526;SDS011;4802;51.494;6.770;2023-02-18T05:32:44;1.50;;;1.40;;
9526;SDS011;4802;51.494;6.770;2023-02-18T05:35:12;3.13;;;1.13;;
9526;SDS011;4802;51.494;6.770;2023-02-18T05:37:41;2.60;;;1.63;;
9526;SDS011;4802;51.494;6.770;2023-02-18T05:40:11;1.23;;;1.13;;
9526;SDS011;4802;51.494;6.770;2023-02-18T05:42:40;4.87;;;1.17;;
9526;SDS011;4802;51.494;6.770;2023-02-18T05:45:08;1.20;;;1.20;;
9526;SDS011;4802;51.494;6.770;2023-02-18T05:47:39;0.70;;;0.70;;
9526;SDS011;4802;51.494;6.770;2023-02-18T05:50:08;0.67;;;0.67;;
9526;SDS011;4802;51.494;6.770;2023-02-18T05:52:37;0.70;;;0.70;;
9526;SDS011;4802;51.494;6.770;2023-02-18T05:55:06;2.33;;;1.13;;
9526;SDS011;4802;51.494;6.770;2023-02-18T05:57:36;1.90;;;1.10;;
9526;SDS011;4802;51.494;6.770;2023-02-18T06:00:05;2.50;;;0.57;;
9526;SDS011;4802;51.494;6.770;2023-02-18T06:02:37;1.30;;;1.23;;
9526;SDS011;4802;51.494;6.770;2023-02-18T06:05:08;6.13;;;1.57;;
9526;SDS011;4802;51.494;6.770;2023-02-18T06:07:36;3.83;;;1.87;;
9526;SDS011;4802;51.494;6.770;2023-02-18T06:10:06;1.20;;;1.20;;
9526;SDS011;4802;51.494;6.770;2023-02-18T06:12:39;0.63;;;0.63;;
9526;SDS011;4802;51.494;6.770;2023-02-18T06:15:17;0.90;;;0.90;;
9526;SDS011;4802;51.494;6.770;2023-02-18T06:17:46;1.00;;;1.00;;
9526;SDS011;4802;51.494;6.770;2023-02-18T06:20:16;1.70;;;0.83;;
9526;SDS011;4802;51.494;6.770;2023-02-18T06:22:45;1.73;;;1.63;;
9526;SDS011;4802;51.494;6.770;2023-02-18T06:25:14;0.97;;;0.97;;
9526;SDS011;4802;51.494;6.770;2023-02-18T06:27:43;0.83;;;0.80;;
9526;SDS011;4802;51.494;6.770;2023-02-18T06:30:13;2.30;;;0.97;;
9526;SDS011;4802;51.494;6.770;2023-02-18T06:32:42;1.30;;;1.00;;
9526;SDS011;4802;51.494;6.770;2023-02-18T06:35:11;1.37;;;1.37;;
9526;SDS011;4802;51.494;6.770;2023-02-18T06:37:42;1.53;;;0.87;;
9526;SDS011;4802;51.494;6.770;2023-02-18T06:40:12;1.40;;;1.27;;
9526;SDS011;4802;51.494;6.770;2023-02-18T06:42:41;1.10;;;1.00;;
9526;SDS011;4802;51.494;6.770;2023-02-18T06:45:11;0.80;;;0.60;;
9526;SDS011;4802;51.494;6.770;2023-02-18T06:47:40;0.70;;;0.70;;
9526;SDS011;4802;51.494;6.770;2023-02-18T06:50:09;0.60;;;0.60;;
9526;SDS011;4802;51.494;6.770;2023-02-18T06:52:38;0.90;;;0.60;;
9526;SDS011;4802;51.494;6.770;2023-02-18T06:55:09;0.90;;;0.90;;
9526;SDS011;4802;51.494;6.770;2023-02-18T06:57:38;1.10;;;1.10;;
9526;SDS011;4802;51.494;6.770;2023-02-18T07:00:07;1.33;;;1.23;;
9526;SDS011;4802;51.494;6.770;2023-02-18T07:02:36;1.37;;;1.27;;
9526;SDS011;4802;51.494;6.770;2023-02-18T07:05:05;1.13;;;1.13;;
9526;SDS011;4802;51.494;6.770;2023-02-18T07:07:34;1.77;;;1.67;;
9526;SDS011;4802;51.494;6.770;2023-02-18T07:10:03;2.40;;;1.13;;
9526;SDS011;4802;51.494;6.770;2023-02-18T07:12:34;4.93;;;1.77;;
9526;SDS011;4802;51.494;6.770;2023-02-18T07:15:03;1.40;;;1.30;;
9526;SDS011;4802;51.494;6.770;2023-02-18T07:17:33;0.60;;;0.60;;
9526;SDS011;4802;51.494;6.770;2023-02-18T07:20:02;1.57;;;1.50;;
9526;SDS011;4802;51.494;6.770;2023-02-18T07:22:31;1.40;;;1.40;;
9526;SDS011;4802;51.494;6.770;2023-02-18T07:25:00;0.50;;;0.50;;
9526;SDS011;4802;51.494;6.770;2023-02-18T07:27:30;0.63;;;0.63;;
9526;SDS011;4802;51.494;6.770;2023-02-18T07:30:00;2.83;;;1.00;;
9526;SDS011;4802;51.494;6.770;2023-02-18T07:32:29;0.93;;;0.90;;
9526;SDS011;4802;51.494;6.770;2023-02-18T07:34:58;3.03;;;1.40;;
9526;SDS011;4802;51.494;6.770;2023-02-18T07:37:27;0.90;;;0.90;;
9526;SDS011;4802;51.494;6.770;2023-02-18T07:39:56;1.17;;;1.07;;
9526;SDS011;4802;51.494;6.770;2023-02-18T07:42:25;1.70;;;1.17;;
9526;SDS011;4802;51.494;6.770;2023-02-18T07:44:54;1.30;;;1.30;;
9526;SDS011;4802;51.494;6.770;2023-02-18T07:47:25;4.80;;;1.20;;
9526;SDS011;4802;51.494;6.770;2023-02-18T07:49:54;1.87;;;1.77;;
9526;SDS011;4802;51.494;6.770;2023-02-18T07:52:23;1.10;;;1.10;;
9526;SDS011;4802;51.494;6.770;2023-02-18T07:54:53;1.70;;;1.60;;
9526;SDS011;4802;51.494;6.770;2023-02-18T07:57:22;1.77;;;1.57;;
9526;SDS011;4802;51.494;6.770;2023-02-18T07:59:51;1.23;;;1.00;;
9526;SDS011;4802;51.494;6.770;2023-02-18T08:02:21;1.33;;;1.23;;
9526;SDS011;4802;51.494;6.770;2023-02-18T08:04:51;1.37;;;1.13;;
9526;SDS011;4802;51.494;6.770;2023-02-18T08:07:20;0.47;;;0.47;;
9526;SDS011;4802;51.494;6.770;2023-02-18T08:09:50;0.60;;;0.60;;
9526;SDS011;4802;51.494;6.770;2023-02-18T08:12:19;0.67;;;0.67;;
9526;SDS011;4802;51.494;6.770;2023-02-18T08:14:48;0.70;;;0.70;;
9526;SDS011;4802;51.494;6.770;2023-02-18T08:17:17;1.43;;;0.90;;
9526;SDS011;4802;51.494;6.770;2023-02-18T08:19:46;0.97;;;0.97;;
9526;SDS011;4802;51.494;6.770;2023-02-18T08:22:17;1.87;;;0.80;;
9526;SDS011;4802;51.494;6.770;2023-02-18T08:24:46;36.47;;;2.10;;
9526;SDS011;4802;51.494;6.770;2023-02-18T08:27:15;0.80;;;0.80;;
9526;SDS011;4802;51.494;6.770;2023-02-18T08:29:44;1.13;;;1.13;;
9526;SDS011;4802;51.494;6.770;2023-02-18T08:32:13;0.80;;;0.80;;
9526;SDS011;4802;51.494;6.770;2023-02-18T08:34:44;1.37;;;1.10;;
9526;SDS011;4802;51.494;6.770;2023-02-18T08:37:13;1.43;;;1.17;;
9526;SDS011;4802;51.494;6.770;2023-02-18T08:39:44;2.00;;;1.00;;
9526;SDS011;4802;51.494;6.770;2023-02-18T08:42:13;0.93;;;0.93;;
9526;SDS011;4802;51.494;6.770;2023-02-18T08:44:42;1.00;;;1.00;;
9526;SDS011;4802;51.494;6.770;2023-02-18T08:47:13;1.47;;;1.37;;
9526;SDS011;4802;51.494;6.770;2023-02-18T08:50:03;2.47;;;1.10;;
9526;SDS011;4802;51.494;6.770;2023-02-18T08:52:33;1.40;;;1.40;;
9526;SDS011;4802;51.494;6.770;2023-02-18T08:55:07;1.07;;;0.90;;
9526;SDS011;4802;51.494;6.770;2023-02-18T08:57:37;1.47;;;1.37;;
9526;SDS011;4802;51.494;6.770;2023-02-18T09:03:36;2.00;;;1.27;;
9526;SDS011;4802;51.494;6.770;2023-02-18T09:06:07;6.33;;;1.57;;
9526;SDS011;4802;51.494;6.770;2023-02-18T09:08:36;9.30;;;1.60;;
9526;SDS011;4802;51.494;6.770;2023-02-18T09:11:12;1.33;;;1.23;;
9526;SDS011;4802;51.494;6.770;2023-02-18T09:13:56;0.80;;;0.80;;
9526;SDS011;4802;51.494;6.770;2023-02-18T09:16:26;1.90;;;1.67;;
